Time;durP1;ratioP1;P1;durP2;ratioP2;P2;SDS_P1;SDS_P2;PMS_P1;PMS_P2;Temp;Humidity;BMP_temperature;BMP_pressure;BME280_temperature;BME280_humidity;BME280_pressure;Samples;Min_cycle;Max_cycle;Signal;HPM_P1;HPM_P2
2021/01/25 00:02:35;;;;;;;0.80;0.80;;;;;;;-1.10;65.37;95185.97;299395;219;63005;-59
2021/01/25 00:07:36;;;;;;;0.80;0.80;;;;;;;-1.08;65.26;95174.00;299395;202;63009;-55
2021/01/25 00:12:37;;;;;;;0.80;0.80;;;;;;;-1.08;65.86;95165.22;299395;212;63005;-58
2021/01/25 00:17:38;;;;;;;0.80;0.80;;;;;;;-1.18;66.78;95154.53;299395;275;63009;-58
2021/01/25 00:22:39;;;;;;;0.80;0.80;;;;;;;-1.24;67.31;95151.03;299395;222;63004;-57
2021/01/25 00:27:39;;;;;;;0.80;0.80;;;;;;;-1.41;68.12;95134.50;299395;202;63009;-58
2021/01/25 00:32:41;;;;;;;0.80;0.80;;;;;;;-1.58;69.30;95129.38;299394;251;64005;-56
2021/01/25 00:37:44;;;;;;;0.80;0.80;;;;;;;-1.59;68.82;95127.75;299395;282;63009;-58
2021/01/25 00:42:45;;;;;;;0.80;0.80;;;;;;;-1.42;70.45;95138.22;299395;271;63005;-57
2021/01/25 00:47:46;;;;;;;0.80;0.80;;;;;;;-1.45;68.60;95128.91;299395;220;63009;-57
2021/01/25 00:52:47;;;;;;;0.80;0.80;;;;;;;-1.46;69.90;95143.25;299395;230;63004;-56
2021/01/25 00:57:48;;;;;;;0.80;0.80;;;;;;;-1.25;66.90;95122.84;299395;281;63009;-57
2021/01/25 01:02:49;;;;;;;0.80;0.80;;;;;;;-1.30;67.54;95122.00;299395;203;63005;-58
2021/01/25 01:07:50;;;;;;;0.80;0.80;;;;;;;-1.29;68.80;95121.75;299395;210;63009;-57
2021/01/25 01:12:51;;;;;;;0.80;0.80;;;;;;;-1.32;68.30;95126.78;299394;209;64005;-58
2021/01/25 01:17:51;;;;;;;0.80;0.80;;;;;;;-1.37;68.59;95128.38;299395;225;63009;-57
2021/01/25 01:22:52;;;;;;;0.80;0.80;;;;;;;-1.31;68.80;95133.72;299395;276;63013;-58
2021/01/25 01:27:57;;;;;;;0.80;0.80;;;;;;;-1.22;67.66;95116.19;299395;223;63025;-55
2021/01/25 01:32:58;;;;;;;;;;;;;;;-1.20;67.74;95098.91;299996;982;6000;-56
2021/01/25 01:37:58;;;;;;;0.80;0.80;;;;;;;-1.34;67.91;95097.78;299400;284;63004;-56
2021/01/25 01:43:00;;;;;;;0.80;0.80;;;;;;;-1.46;69.10;95100.69;299395;262;63009;-55
2021/01/25 01:48:01;;;;;;;0.80;0.80;;;;;;;-1.45;68.93;95096.97;299395;213;63005;-56
2021/01/25 01:53:03;;;;;;;0.80;0.80;;;;;;;-1.35;69.25;95099.66;299394;280;64013;-56
2021/01/25 01:58:04;;;;;;;0.88;0.88;;;;;;;-1.27;68.67;95097.53;299395;206;63008;-55
2021/01/25 02:03:05;;;;;;;0.90;0.90;;;;;;;-1.19;68.86;95094.38;299395;214;63009;-55
2021/01/25 02:08:07;;;;;;;0.90;0.90;;;;;;;-1.23;69.80;95101.28;299395;211;63009;-55
2021/01/25 02:13:09;;;;;;;0.80;0.80;;;;;;;-1.31;70.80;95099.13;299395;222;63009;-55
2021/01/25 02:18:10;;;;;;;0.80;0.80;;;;;;;-1.22;69.09;95087.72;299395;293;63005;-55
2021/01/25 02:23:47;;;;;;;0.80;0.80;;;;;;;-1.22;69.24;95089.59;299395;203;63008;-56
2021/01/25 02:28:48;;;;;;;0.80;0.80;;;;;;;-1.28;69.63;95082.66;299417;208;63004;-55
2021/01/25 02:33:55;;;;;;;0.80;0.80;;;;;;;-1.24;69.49;95083.72;299394;225;64009;-55
2021/01/25 02:39:00;;;;;;;0.80;0.80;;;;;;;-1.25;70.16;95079.47;299395;203;63005;-56
2021/01/25 02:44:02;;;;;;;;;;;;;;;-1.20;71.41;95074.16;299996;981;6004;-55
2021/01/25 02:49:04;;;;;;;0.80;0.80;;;;;;;-1.22;71.07;95073.62;299400;216;63009;-56
2021/01/25 02:54:05;;;;;;;0.80;0.80;;;;;;;-1.24;70.46;95071.22;299394;273;64005;-55
2021/01/25 02:59:09;;;;;;;0.80;0.80;;;;;;;-1.22;70.50;95074.41;299395;314;63009;-56
2021/01/25 03:04:11;;;;;;;0.80;0.80;;;;;;;-1.22;70.86;95077.06;299395;202;63005;-55
2021/01/25 03:09:11;;;;;;;0.80;0.80;;;;;;;-1.20;71.53;95095.44;299395;215;63009;-55
2021/01/25 03:14:13;;;;;;;0.80;0.80;;;;;;;-1.25;73.14;95103.41;299395;206;63004;-56
2021/01/25 03:19:14;;;;;;;0.80;0.80;;;;;;;-1.38;75.33;95110.81;299395;226;63009;-56
2021/01/25 03:24:15;;;;;;;0.80;0.80;;;;;;;-1.50;77.18;95120.91;299395;205;63005;-56
2021/01/25 03:29:20;;;;;;;0.80;0.80;;;;;;;-1.48;78.09;95120.63;299395;213;63009;-55
2021/01/25 03:34:21;;;;;;;0.80;0.80;;;;;;;-1.60;79.57;95118.19;299395;271;63005;-56
2021/01/25 03:39:22;;;;;;;0.80;0.80;;;;;;;-1.60;80.60;95118.19;299395;213;63009;-57
2021/01/25 03:44:23;;;;;;;0.80;0.80;;;;;;;-1.65;81.17;95112.03;299396;196;63004;-54
2021/01/25 03:49:24;;;;;;;0.80;0.80;;;;;;;-1.69;81.41;95115.22;299396;231;63009;-55
2021/01/25 03:54:25;;;;;;;0.80;0.80;;;;;;;-1.73;81.70;95110.66;299396;229;63005;-56
2021/01/25 03:59:26;;;;;;;0.80;0.80;;;;;;;-1.66;82.45;95110.44;299396;202;63009;-57
2021/01/25 04:04:28;;;;;;;0.80;0.80;;;;;;;-1.70;82.58;95115.47;299396;200;63005;-56
2021/01/25 04:09:29;;;;;;;0.80;0.80;;;;;;;-1.65;82.51;95126.12;299396;384;63009;-57
2021/01/25 04:14:30;;;;;;;0.80;0.80;;;;;;;-1.67;83.19;95120.28;299396;204;63004;-67
2021/01/25 04:19:30;;;;;;;0.80;0.80;;;;;;;-1.67;83.16;95122.94;299396;211;63009;-57
2021/01/25 04:24:32;;;;;;;0.80;0.80;;;;;;;-1.67;83.42;95125.59;299396;202;63001;-57
2021/01/25 04:29:33;;;;;;;0.80;0.80;;;;;;;-1.72;83.98;95128.22;299397;271;63008;-56
2021/01/25 04:34:34;;;;;;;0.80;0.80;;;;;;;-1.66;83.74;95121.88;299397;255;63004;-57
2021/01/25 04:39:36;;;;;;;0.80;0.80;;;;;;;-1.66;83.48;95121.88;299396;216;63009;-55
2021/01/25 04:44:39;;;;;;;0.80;0.80;;;;;;;-1.73;84.04;95115.97;299396;228;63004;-67
2021/01/25 04:49:42;;;;;;;0.80;0.80;;;;;;;-1.71;84.23;95127.16;299396;266;63009;-56
2021/01/25 04:54:46;;;;;;;0.80;0.80;;;;;;;-1.71;84.60;95124.50;299396;228;63005;-56
2021/01/25 04:59:48;;;;;;;0.80;0.80;;;;;;;-1.74;84.65;95127.72;299396;196;63008;-57
2021/01/25 05:04:49;;;;;;;0.90;0.90;;;;;;;-1.73;85.24;95129.28;299396;329;63004;-56
2021/01/25 05:09:53;;;;;;;0.90;0.90;;;;;;;-1.69;85.24;95133.03;299396;203;63009;-57
2021/01/25 05:14:54;;;;;;;0.90;0.90;;;;;;;-1.67;85.57;95130.91;299418;215;63004;-58
2021/01/25 05:19:58;;;;;;;0.80;0.80;;;;;;;-1.69;85.19;95133.03;299396;208;63009;-58
2021/01/25 05:24:59;;;;;;;0.80;0.80;;;;;;;-1.66;85.28;95139.69;299419;196;63005;-58
2021/01/25 05:30:11;;;;;;;0.90;0.90;;;;;;;-1.61;85.24;95139.72;299395;210;63008;-59
2021/01/25 05:35:15;;;;;;;0.80;0.80;;;;;;;-1.61;85.33;95145.03;299395;214;63004;-58
2021/01/25 05:40:16;;;;;;;0.80;0.80;;;;;;;-1.61;85.48;95145.84;299395;260;63009;-59
2021/01/25 05:45:19;;;;;;;0.85;0.85;;;;;;;-1.57;85.48;95144.25;299394;242;63004;-58
2021/01/25 05:50:49;;;;;;;0.80;0.80;;;;;;;-1.57;85.39;95146.91;299395;220;63017;-58
2021/01/25 05:55:49;;;;;;;0.80;0.80;;;;;;;-1.55;85.60;95146.66;299395;247;63005;-58
2021/01/25 06:00:50;;;;;;;0.80;0.80;;;;;;;-1.48;85.43;95147.22;299395;267;63009;-58
2021/01/25 06:05:52;;;;;;;0.80;0.80;;;;;;;-1.51;85.51;95159.19;299395;199;63000;-57
2021/01/25 06:11:16;;;;;;;0.80;0.80;;;;;;;-1.52;85.00;95154.13;299395;239;63009;-56
2021/01/25 06:16:21;;;;;;;0.80;0.80;;;;;;;-1.58;85.34;95155.16;299395;315;63005;-57
2021/01/25 06:21:25;;;;;;;0.90;0.90;;;;;;;-1.66;85.10;95167.06;299417;226;63009;-66
2021/01/25 06:26:26;;;;;;;0.80;0.80;;;;;;;-1.58;85.20;95171.91;299417;253;63005;-57
2021/01/25 06:31:28;;;;;;;0.80;0.80;;;;;;;-1.68;85.46;95171.84;299396;218;63009;-57
2021/01/25 06:36:30;;;;;;;0.80;0.80;;;;;;;-1.66;85.54;95182.22;299395;230;63004;-57
2021/01/25 06:41:39;;;;;;;0.80;0.80;;;;;;;-1.61;85.44;95182.25;299395;235;63019;-57
2021/01/25 06:46:41;;;;;;;0.82;0.82;;;;;;;-1.65;85.47;95192.63;299395;265;63005;-58
2021/01/25 06:51:44;;;;;;;0.80;0.80;;;;;;;-1.60;85.41;95195.31;299395;333;63008;-57
2021/01/25 06:56:50;;;;;;;0.90;0.90;;;;;;;-1.58;85.81;95198.50;299395;283;63004;-57
2021/01/25 07:01:53;;;;;;;0.80;0.80;;;;;;;-1.57;85.26;95209.94;299395;214;63009;-57
2021/01/25 07:06:56;;;;;;;0.80;0.80;;;;;;;-1.56;85.69;95212.34;299395;232;63005;-58
2021/01/25 07:12:02;;;;;;;0.80;0.80;;;;;;;-1.50;85.66;95227.28;299395;360;63009;-58
2021/01/25 07:17:03;;;;;;;0.80;0.80;;;;;;;-1.46;85.64;95222.25;299395;291;63011;-57
2021/01/25 07:22:05;;;;;;;0.80;0.80;;;;;;;-1.46;85.36;95239.03;299395;313;63009;-58
2021/01/25 07:27:07;;;;;;;0.80;0.80;;;;;;;-1.43;85.48;95238.50;299395;202;63004;-59
2021/01/25 07:32:12;;;;;;;0.80;0.80;;;;;;;-1.48;85.72;95241.12;299395;215;63009;-69
2021/01/25 07:37:13;;;;;;;0.80;0.80;;;;;;;-1.42;85.77;95245.44;299395;199;63005;-59
2021/01/25 07:42:15;;;;;;;0.95;0.95;;;;;;;-1.33;85.26;95260.87;299394;206;64009;-59
2021/01/25 07:47:20;;;;;;;0.80;0.80;;;;;;;-1.27;85.09;95268.66;299395;217;63005;-58
2021/01/25 07:52:21;;;;;;;0.80;0.80;;;;;;;-1.22;85.16;95268.69;299395;199;63009;-58
2021/01/25 07:57:23;;;;;;;0.80;0.80;;;;;;;-1.20;85.32;95273.75;299395;198;63004;-58
2021/01/25 08:02:26;;;;;;;0.70;0.70;;;;;;;-1.17;85.07;95274.03;299395;196;63009;-56
2021/01/25 08:07:27;;;;;;;0.80;0.80;;;;;;;-1.19;85.64;95286.00;299395;271;63005;-56
2021/01/25 08:12:33;;;;;;;0.80;0.80;;;;;;;-1.20;85.35;95289.72;299395;279;63009;-56
2021/01/25 08:17:46;;;;;;;0.80;0.80;;;;;;;-1.19;86.05;95291.31;299395;235;63004;-56
2021/01/25 08:23:17;;;;;;;0.80;0.80;;;;;;;-1.19;86.16;95302.75;299395;288;63009;-55
2021/01/25 08:28:23;;;;;;;0.80;0.80;;;;;;;-1.14;nan;95309.97;299395;207;63004;-56
2021/01/25 08:33:31;;;;;;;0.80;0.80;;;;;;;-1.11;86.24;95312.94;299395;241;63009;-56
2021/01/25 08:38:41;;;;;;;0.80;0.80;;;;;;;-1.04;85.66;95323.34;299395;213;63008;-57
2021/01/25 08:43:52;;;;;;;0.80;0.80;;;;;;;-0.85;85.12;95329.03;299395;339;63009;-56
2021/01/25 08:48:53;;;;;;;0.80;0.80;;;;;;;-0.74;85.35;95331.50;299395;216;63004;-56
2021/01/25 08:54:04;;;;;;;0.80;0.80;;;;;;;-0.56;84.85;95338.22;299395;245;63009;-56
2021/01/25 08:59:14;;;;;;;0.90;0.90;;;;;;;-0.47;84.57;95341.19;299395;308;63005;-57
2021/01/25 09:04:15;;;;;;;0.90;0.90;;;;;;;-0.44;84.77;95351.31;299395;264;63009;-56
2021/01/25 09:09:17;;;;;;;0.80;0.80;;;;;;;-0.44;85.08;95361.97;299395;334;63010;-57
2021/01/25 09:14:20;;;;;;;0.80;0.80;;;;;;;-0.40;85.09;95368.38;299395;326;63009;-58
2021/01/25 09:19:21;;;;;;;0.80;0.80;;;;;;;-0.26;84.36;95369.50;299417;236;63004;-58
2021/01/25 09:24:23;;;;;;;0.80;0.80;;;;;;;-0.16;83.81;95379.38;299395;268;63009;-58
2021/01/25 09:29:26;;;;;;;0.80;0.80;;;;;;;-0.12;83.11;95383.94;299395;200;63005;-56
2021/01/25 09:34:28;;;;;;;0.80;0.80;;;;;;;-0.15;83.56;95395.13;299395;228;63009;-56
2021/01/25 09:39:33;;;;;;;0.80;0.80;;;;;;;-0.11;83.74;95404.22;299395;241;63005;-56
2021/01/25 09:44:36;;;;;;;0.80;0.80;;;;;;;0.16;82.96;95416.53;299417;213;63009;-57
2021/01/25 09:49:37;;;;;;;0.80;0.80;;;;;;;0.11;83.16;95421.84;299395;206;63004;-58
2021/01/25 09:54:42;;;;;;;0.80;0.80;;;;;;;0.13;82.90;95430.41;299395;225;63009;-57
2021/01/25 09:59:47;;;;;;;0.70;0.70;;;;;;;0.09;83.32;95429.31;299395;247;63005;-56
2021/01/25 10:04:48;;;;;;;0.80;0.80;;;;;;;0.18;83.35;95441.09;299395;211;63008;-56
2021/01/25 10:09:54;;;;;;;0.80;0.80;;;;;;;0.18;82.74;95449.09;299395;204;63009;-62
2021/01/25 10:15:00;;;;;;;0.80;0.80;;;;;;;0.26;82.94;95453.91;299395;248;63009;-62
2021/01/25 10:20:01;;;;;;;0.80;0.80;;;;;;;0.32;83.25;95460.88;299395;252;63004;-56
2021/01/25 10:25:09;;;;;;;0.80;0.80;;;;;;;0.41;83.07;95459.28;299395;214;63020;-57
2021/01/25 10:30:13;;;;;;;0.70;0.70;;;;;;;0.56;82.56;95474.53;299395;237;63005;-57
2021/01/25 10:35:15;;;;;;;0.70;0.70;;;;;;;0.63;82.01;95475.09;299417;259;63008;-58
2021/01/25 10:40:16;;;;;;;0.80;0.80;;;;;;;0.65;82.55;95481.78;299373;231;63004;-57
2021/01/25 10:45:17;;;;;;;0.80;0.80;;;;;;;0.65;81.82;95492.44;299395;246;63009;-56
2021/01/25 10:50:18;;;;;;;0.80;0.80;;;;;;;0.68;81.97;95495.66;299395;203;63005;-57
2021/01/25 10:55:19;;;;;;;0.80;0.80;;;;;;;0.73;81.68;95495.63;299395;206;63009;-61
2021/01/25 11:00:22;;;;;;;0.80;0.80;;;;;;;0.80;81.51;95506.88;299395;231;63005;-63
2021/01/25 11:05:27;;;;;;;0.80;0.80;;;;;;;0.70;81.71;95509.50;299395;205;63009;-58
2021/01/25 11:10:29;;;;;;;0.80;0.80;;;;;;;0.91;81.82;95511.97;299395;241;63004;-62
2021/01/25 11:15:30;;;;;;;0.80;0.80;;;;;;;0.99;80.40;95524.00;299395;245;63009;-65
2021/01/25 11:20:31;;;;;;;0.80;0.80;;;;;;;0.95;81.26;95528.25;299395;254;63005;-60
2021/01/25 11:25:32;;;;;;;0.80;0.80;;;;;;;1.03;79.63;95527.75;299395;244;63009;-64
2021/01/25 11:30:35;;;;;;;0.70;0.70;;;;;;;1.06;80.04;95532.53;299395;199;63005;-55
2021/01/25 11:35:36;;;;;;;0.80;0.80;;;;;;;1.25;79.84;95530.97;299395;216;63009;-57
2021/01/25 11:40:36;;;;;;;0.80;0.80;;;;;;;1.44;79.10;95543.78;299395;202;63004;-60
2021/01/25 11:45:38;;;;;;;0.80;0.80;;;;;;;1.44;78.85;95541.09;299395;242;63009;-62
2021/01/25 11:50:43;;;;;;;0.80;0.80;;;;;;;1.28;79.80;95545.66;299395;215;63005;-70
2021/01/25 11:55:44;;;;;;;;;;;;;;;1.18;80.86;95559.81;299996;983;5998;-64
2021/01/25 12:00:45;;;;;;;0.95;0.95;;;;;;;1.16;80.44;95553.91;299400;239;63009;-67
2021/01/25 12:05:48;;;;;;;0.80;0.80;;;;;;;1.03;80.93;95557.13;299394;203;64005;-65
2021/01/25 12:10:50;;;;;;;0.80;0.80;;;;;;;1.01;81.56;95564.59;299395;202;63009;-63
2021/01/25 12:15:51;;;;;;;0.80;0.80;;;;;;;0.95;81.80;95565.66;299395;208;63005;-65
2021/01/25 12:20:52;;;;;;;0.80;0.80;;;;;;;1.12;81.24;95562.72;299395;220;63009;-61
2021/01/25 12:25:53;;;;;;;0.80;0.80;;;;;;;1.14;81.69;95569.41;299395;228;63004;-67
2021/01/25 12:30:55;;;;;;;0.80;0.80;;;;;;;1.38;79.87;95563.56;299395;204;63019;-65
2021/01/25 12:35:56;;;;;;;0.80;0.80;;;;;;;1.25;80.02;95560.34;299394;265;64009;-62
2021/01/25 12:41:01;;;;;;;0.80;0.80;;;;;;;1.29;80.13;95565.97;299395;265;63008;-61
2021/01/25 12:46:02;;;;;;;0.80;0.80;;;;;;;1.50;79.52;95566.75;299395;202;63004;-64
2021/01/25 12:51:06;;;;;;;0.73;0.73;;;;;;;1.48;79.50;95568.91;299395;226;63009;-62
2021/01/25 12:56:07;;;;;;;0.80;0.80;;;;;;;1.47;79.71;95578.78;299417;210;63004;-67
2021/01/25 13:01:11;;;;;;;0.80;0.80;;;;;;;1.57;79.54;95583.34;299395;221;63009;-61
2021/01/25 13:06:12;;;;;;;0.80;0.80;;;;;;;1.50;79.61;95582.81;299417;209;63005;-69
2021/01/25 13:11:13;;;;;;;0.80;0.80;;;;;;;1.30;80.09;95584.41;299395;225;63008;-69
2021/01/25 13:16:15;;;;;;;0.80;0.80;;;;;;;1.08;82.28;95594.50;299395;262;63004;-75
2021/01/25 13:21:16;;;;;;;0.80;0.80;;;;;;;0.79;83.92;95601.38;299395;214;63009;-74
2021/01/25 13:26:17;;;;;;;0.80;0.80;;;;;;;0.81;83.62;95612.59;299395;215;63004;-63
2021/01/25 13:31:18;;;;;;;0.80;0.80;;;;;;;0.86;83.35;95626.78;299395;212;63009;-73
2021/01/25 13:36:19;;;;;;;0.80;0.80;;;;;;;0.95;81.95;95624.41;299395;212;63000;-70
2021/01/25 13:41:20;;;;;;;0.80;0.80;;;;;;;1.05;80.33;95628.97;299395;196;63008;-71
2021/01/25 13:46:21;;;;;;;0.80;0.80;;;;;;;1.33;80.06;95634.66;299395;241;63013;-65
2021/01/25 13:51:26;;;;;;;0.80;0.80;;;;;;;1.27;79.45;95654.41;299395;280;63009;-61
2021/01/25 13:56:27;;;;;;;0.80;0.80;;;;;;;1.23;79.04;95664.03;299417;216;63001;-67
2021/01/25 14:01:28;;;;;;;0.80;0.80;;;;;;;1.10;78.61;95671.72;299395;229;63019;-69
2021/01/25 14:06:28;;;;;;;0.90;0.90;;;;;;;0.93;78.88;95674.63;299395;210;63005;-61
2021/01/25 14:11:30;;;;;;;0.90;0.90;;;;;;;1.05;79.17;95677.84;299395;234;63009;-63
2021/01/25 14:16:31;;;;;;;0.80;0.80;;;;;;;1.05;78.03;95695.75;299395;206;63004;-69
2021/01/25 14:21:32;;;;;;;0.80;0.80;;;;;;;0.91;78.29;95698.09;299394;219;64009;-65
2021/01/25 14:26:33;;;;;;;0.80;0.80;;;;;;;0.77;78.72;95712.97;299395;200;63005;-68
2021/01/25 14:31:34;;;;;;;0.80;0.80;;;;;;;0.72;78.62;95710.28;299395;198;63009;-66
2021/01/25 14:36:38;;;;;;;0.90;0.90;;;;;;;0.69;78.41;95721.50;299395;225;63005;-63
2021/01/25 14:41:39;;;;;;;4.75;4.43;;;;;;;0.67;79.35;95724.44;299417;214;63009;-63
2021/01/25 14:46:43;;;;;;;0.80;0.80;;;;;;;0.63;79.53;95737.50;299394;348;64004;-62
2021/01/25 14:51:44;;;;;;;0.90;0.90;;;;;;;0.72;78.92;95753.00;299417;198;63009;-67
2021/01/25 14:56:45;;;;;;;1.10;1.10;;;;;;;0.64;79.12;95763.13;299395;303;63005;-63
2021/01/25 15:01:47;;;;;;;0.80;0.80;;;;;;;0.64;78.72;95762.31;299395;223;63009;-59
2021/01/25 15:06:48;;;;;;;0.80;0.80;;;;;;;0.69;78.78;95769.56;299395;203;63005;-62
2021/01/25 15:11:50;;;;;;;0.80;0.80;;;;;;;0.64;79.08;95776.47;299395;247;63009;-64
2021/01/25 15:16:51;;;;;;;0.80;0.80;;;;;;;0.52;80.09;95785.72;299395;208;63008;-63
2021/01/25 15:21:54;;;;;;;0.80;0.80;;;;;;;0.63;79.23;95793.56;299395;264;63009;-61
2021/01/25 15:26:58;;;;;;;0.82;0.82;;;;;;;0.47;80.28;95799.03;299395;347;63005;-66
2021/01/25 15:32:05;;;;;;;1.27;1.25;;;;;;;0.43;80.45;95809.41;299417;324;63008;-58
2021/01/25 15:37:07;;;;;;;0.80;0.80;;;;;;;0.37;80.24;95818.41;299395;301;63004;-67
2021/01/25 15:42:09;;;;;;;0.80;0.80;;;;;;;0.28;81.09;95833.31;299395;204;63009;-63
2021/01/25 15:47:14;;;;;;;0.95;0.95;;;;;;;0.32;80.78;95848.56;299395;214;63004;-63
2021/01/25 15:52:16;;;;;;;1.10;1.10;;;;;;;0.32;79.91;95858.44;299395;198;63009;-65
2021/01/25 15:57:17;;;;;;;0.80;0.80;;;;;;;0.29;79.72;95869.59;299395;220;63005;-63
2021/01/25 16:02:21;;;;;;;0.80;0.80;;;;;;;0.25;80.14;95876.50;299395;206;63008;-62
2021/01/25 16:07:23;;;;;;;0.80;0.80;;;;;;;0.18;79.86;95875.88;299417;211;63010;-64
2021/01/25 16:12:24;;;;;;;0.82;0.82;;;;;;;0.20;79.76;95885.25;299395;210;63009;-66
2021/01/25 16:17:26;;;;;;;0.70;0.70;;;;;;;0.12;80.28;95892.91;299396;387;63000;-64
2021/01/25 16:22:31;;;;;;;0.80;0.80;;;;;;;0.05;80.89;95902.94;299396;219;63009;-64
2021/01/25 16:27:32;;;;;;;0.80;0.80;;;;;;;-0.13;82.36;95907.56;299396;209;63005;-66
2021/01/25 16:32:35;;;;;;;0.70;0.70;;;;;;;0.05;81.49;95918.94;299396;231;63008;-69
2021/01/25 16:37:38;;;;;;;0.80;0.80;;;;;;;0.06;81.44;95925.91;299396;210;63004;-75
2021/01/25 16:42:41;;;;;;;0.80;0.80;;;;;;;0.04;81.49;95942.16;299396;272;63009;-68
2021/01/25 16:47:42;;;;;;;0.80;0.80;;;;;;;-0.13;82.49;95944.09;299396;206;63004;-62
2021/01/25 16:52:43;;;;;;;0.80;0.80;;;;;;;-0.18;83.24;95950.16;299396;199;63009;-65
2021/01/25 16:57:44;;;;;;;0.70;0.70;;;;;;;-0.26;83.64;95960.44;299396;267;63005;-63
2021/01/25 17:02:45;;;;;;;0.70;0.70;;;;;;;-0.36;84.49;95966.47;299397;220;63009;-62
2021/01/25 17:07:47;;;;;;;0.70;0.70;;;;;;;-0.34;84.95;95975.81;299397;280;63004;-65
2021/01/25 17:12:48;;;;;;;0.70;0.70;;;;;;;-0.22;84.32;95983.69;299396;259;63009;-67
2021/01/25 17:17:52;;;;;;;0.75;0.75;;;;;;;0.10;82.56;95991.03;299397;216;63011;-69
2021/01/25 17:22:53;;;;;;;0.80;0.80;;;;;;;-0.02;83.28;95997.31;299418;213;63009;-64
2021/01/25 17:27:54;;;;;;;0.70;0.70;;;;;;;0.24;81.57;96006.41;299396;250;63005;-67
2021/01/25 17:32:58;;;;;;;0.80;0.80;;;;;;;0.26;82.69;96008.84;299396;227;63009;-66
2021/01/25 17:38:00;;;;;;;0.80;0.80;;;;;;;0.06;84.86;96032.59;299418;237;63004;-63
2021/01/25 17:43:01;;;;;;;0.70;0.70;;;;;;;-0.02;86.04;96037.31;299396;207;63009;-64
2021/01/25 17:48:03;;;;;;;0.82;0.82;;;;;;;0.05;86.66;96044.31;299396;214;63005;-62
2021/01/25 17:53:04;;;;;;;0.80;0.80;;;;;;;-0.18;87.16;96053.34;299396;236;63009;-59
2021/01/25 17:58:05;;;;;;;0.80;0.80;;;;;;;-0.27;88.17;96060.94;299397;309;63005;-59
2021/01/25 18:03:06;;;;;;;0.80;0.80;;;;;;;-0.19;87.70;96063.19;299396;283;63009;-58
2021/01/25 18:08:07;;;;;;;0.80;0.80;;;;;;;-0.42;88.09;96074.06;299395;315;63004;-59
2021/01/25 18:13:08;;;;;;;0.80;0.80;;;;;;;-0.52;88.54;96079.22;299395;222;63009;-60
2021/01/25 18:18:09;;;;;;;0.80;0.80;;;;;;;-0.56;88.10;96088.75;299395;247;63005;-62
2021/01/25 18:23:10;;;;;;;0.80;0.80;;;;;;;-0.41;87.78;96107.66;299395;390;63009;-59
2021/01/25 18:28:11;;;;;;;0.80;0.80;;;;;;;-0.34;87.10;96114.41;299395;214;63005;-59
2021/01/25 18:33:12;;;;;;;0.80;0.80;;;;;;;-0.46;86.88;96120.91;299394;271;64014;-59
2021/01/25 18:38:13;;;;;;;0.80;0.80;;;;;;;-0.51;86.50;96124.28;299395;196;63004;-59
2021/01/25 18:43:15;;;;;;;0.80;0.80;;;;;;;-0.35;85.73;96136.00;299395;314;63009;-60
2021/01/25 18:48:16;;;;;;;0.80;0.80;;;;;;;-0.53;85.80;96146.88;299395;279;63005;-59
2021/01/25 18:53:17;;;;;;;0.80;0.80;;;;;;;-0.47;85.74;96156.59;299395;205;63008;-59
2021/01/25 18:58:18;;;;;;;0.80;0.80;;;;;;;-0.56;85.08;96164.16;299395;198;63004;-59
2021/01/25 19:03:20;;;;;;;0.80;0.80;;;;;;;-0.47;85.27;96175.25;299395;300;63009;-66
2021/01/25 19:08:22;;;;;;;0.80;0.80;;;;;;;-0.45;85.08;96176.63;299395;255;63004;-59
2021/01/25 19:13:23;;;;;;;0.80;0.80;;;;;;;-0.46;84.76;96179.53;299395;200;63009;-57
2021/01/25 19:18:27;;;;;;;0.80;0.80;;;;;;;-0.37;84.55;96191.41;299395;244;63005;-60
2021/01/25 19:23:28;;;;;;;0.80;0.80;;;;;;;-0.36;84.62;96196.50;299417;208;63008;-58
2021/01/25 19:28:29;;;;;;;0.80;0.80;;;;;;;-0.45;85.06;96199.78;299395;295;63004;-58
2021/01/25 19:33:31;;;;;;;0.80;0.80;;;;;;;-0.31;83.62;96214.41;299395;298;63009;-59
2021/01/25 19:38:32;;;;;;;0.80;0.80;;;;;;;-0.28;83.65;96216.59;299395;321;63004;-58
2021/01/25 19:43:32;;;;;;;0.80;0.80;;;;;;;-0.26;83.02;96227.03;299395;227;63009;-58
2021/01/25 19:48:34;;;;;;;1.12;1.12;;;;;;;-0.32;83.40;96227.97;299395;338;63005;-58
2021/01/25 19:53:35;;;;;;;0.80;0.80;;;;;;;-0.47;83.81;96232.00;299395;218;63008;-58
2021/01/25 19:58:36;;;;;;;0.80;0.80;;;;;;;-0.48;83.82;96246.38;299395;263;63004;-58
2021/01/25 20:03:38;;;;;;;0.80;0.80;;;;;;;-0.38;82.61;96251.09;299395;204;63009;-58
2021/01/25 20:08:38;;;;;;;0.80;0.80;;;;;;;-0.55;83.08;96260.91;299395;245;63004;-58
2021/01/25 20:13:41;;;;;;;0.80;0.80;;;;;;;-0.35;82.58;96277.28;299395;249;63009;-58
2021/01/25 20:18:43;;;;;;;0.80;0.80;;;;;;;-0.16;81.04;96286.69;299395;214;63005;-60
2021/01/25 20:23:44;;;;;;;1.75;1.30;;;;;;;-0.24;81.32;96295.06;299395;218;63008;-61
2021/01/25 20:28:49;;;;;;;0.80;0.80;;;;;;;-0.23;81.79;96299.34;299395;198;63004;-58
2021/01/25 20:33:52;;;;;;;0.80;0.80;;;;;;;-0.15;81.30;96308.81;299417;202;63009;-58
2021/01/25 20:38:56;;;;;;;0.88;0.88;;;;;;;-0.20;81.45;96317.53;299395;218;63005;-59
2021/01/25 20:43:59;;;;;;;0.80;0.80;;;;;;;-0.19;81.54;96324.50;299417;233;63009;-64
2021/01/25 20:49:01;;;;;;;1.10;1.10;;;;;;;-0.11;81.76;96329.44;299395;202;63005;-58
2021/01/25 20:54:06;;;;;;;0.80;0.80;;;;;;;-0.22;81.86;96340.16;299395;222;63009;-59
2021/01/25 20:59:07;;;;;;;0.80;0.80;;;;;;;-0.16;82.75;96356.00;299417;202;63004;-63
2021/01/25 21:04:09;;;;;;;0.90;0.90;;;;;;;-0.13;84.15;96371.53;299395;235;63009;-60
2021/01/25 21:09:10;;;;;;;0.80;0.80;;;;;;;-0.16;86.58;96382.69;299395;201;63005;-62
2021/01/25 21:14:10;;;;;;;1.00;1.00;;;;;;;-0.34;87.01;96390.84;299395;298;63013;-60
2021/01/25 21:19:11;;;;;;;1.00;1.00;;;;;;;-0.38;86.76;96395.03;299395;299;63005;-60
2021/01/25 21:24:12;;;;;;;2.30;2.17;;;;;;;-0.49;87.19;96401.19;299395;273;63009;-58
2021/01/25 21:29:13;;;;;;;1.40;1.40;;;;;;;-0.55;86.98;96404.78;299395;323;63004;-60
2021/01/25 21:34:14;;;;;;;1.02;1.02;;;;;;;-0.57;86.35;96406.88;299395;248;63009;-61
2021/01/25 21:39:15;;;;;;;0.90;0.90;;;;;;;-0.54;86.79;96419.75;299395;223;63005;-69
2021/01/25 21:44:17;;;;;;;0.90;0.90;;;;;;;-0.55;85.73;96431.44;299395;240;63009;-59
2021/01/25 21:49:18;;;;;;;0.90;0.90;;;;;;;-0.51;85.91;96427.28;299395;255;63005;-58
2021/01/25 21:54:19;;;;;;;1.42;1.33;;;;;;;-0.53;85.88;96440.81;299395;205;63009;-59
2021/01/25 21:59:21;;;;;;;1.02;1.02;;;;;;;-0.45;84.88;96443.16;299395;223;63005;-62
2021/01/25 22:04:22;;;;;;;0.80;0.80;;;;;;;-0.54;85.87;96462.38;299395;198;63009;-59
2021/01/25 22:09:23;;;;;;;1.05;1.05;;;;;;;-0.44;85.34;96466.09;299395;223;63011;-65
2021/01/25 22:14:28;;;;;;;0.93;0.93;;;;;;;-0.47;85.04;96476.41;299395;244;63009;-61
2021/01/25 22:19:30;;;;;;;0.80;0.80;;;;;;;-0.54;84.58;96475.69;299395;297;63005;-63
2021/01/25 22:24:31;;;;;;;0.80;0.80;;;;;;;-0.62;85.57;96489.38;299395;199;63009;-59
2021/01/25 22:29:32;;;;;;;0.80;0.80;;;;;;;-0.59;84.87;96488.91;299395;239;63004;-66
2021/01/25 22:34:33;;;;;;;0.80;0.80;;;;;;;-0.47;83.13;96503.88;299395;299;63009;-58
2021/01/25 22:39:38;;;;;;;0.90;0.90;;;;;;;-0.43;83.31;96502.34;299395;214;63010;-62
2021/01/25 22:44:40;;;;;;;0.90;0.90;;;;;;;-0.42;82.68;96505.84;299395;241;63009;-62
2021/01/25 22:49:41;;;;;;;0.80;0.80;;;;;;;-0.46;83.20;96504.69;299395;274;63005;-61
2021/01/25 22:54:42;;;;;;;0.85;0.85;;;;;;;-0.54;83.08;96508.50;299395;222;63009;-63
2021/01/25 22:59:43;;;;;;;0.80;0.80;;;;;;;-0.56;82.81;96515.09;299395;316;63004;-61
2021/01/25 23:04:46;;;;;;;0.90;0.90;;;;;;;-0.58;82.69;96519.84;299395;217;63009;-70
2021/01/25 23:09:47;;;;;;;0.80;0.80;;;;;;;-0.58;82.67;96522.50;299395;304;63005;-60
2021/01/25 23:14:48;;;;;;;0.80;0.80;;;;;;;-0.59;81.88;96532.34;299395;212;63019;-60
2021/01/25 23:19:48;;;;;;;2.08;1.98;;;;;;;-0.63;82.31;96547.19;299395;218;63004;-60
2021/01/25 23:24:50;;;;;;;0.90;0.90;;;;;;;-0.65;82.75;96548.44;299395;241;63009;-61
2021/01/25 23:29:52;;;;;;;0.90;0.90;;;;;;;-0.78;83.30;96560.16;299395;206;63004;-65
2021/01/25 23:34:53;;;;;;;0.80;0.80;;;;;;;-1.03;84.60;96552.31;299395;331;63009;-66
2021/01/25 23:39:54;;;;;;;0.80;0.80;;;;;;;-1.06;85.78;96568.78;299395;203;63005;-57
2021/01/25 23:44:55;;;;;;;0.80;0.80;;;;;;;-0.97;85.00;96571.91;299395;385;63008;-65
2021/01/25 23:49:56;;;;;;;0.80;0.80;;;;;;;-0.89;84.77;96568.91;299395;275;63004;-61